sensor_id;sensor_type;location;lat;lon;timestamp;pressure;altitude;pressure_sealevel;temperature;humidity
72414;BME280;60995;52.154;4.498;2023-08-21T00:00:32;102920.88;;;18.79;100.00
72414;BME280;60995;52.154;4.498;2023-08-21T00:02:48;102925.03;;;18.73;100.00
72414;BME280;60995;52.154;4.498;2023-08-21T00:05:05;102925.94;;;18.74;100.00
72414;BME280;60995;52.154;4.498;2023-08-21T00:07:22;102942.69;;;18.71;100.00
72414;BME280;60995;52.154;4.498;2023-08-21T00:09:39;102931.25;;;18.65;100.00
72414;BME280;60995;52.154;4.498;2023-08-21T00:11:55;102941.25;;;18.66;100.00
72414;BME280;60995;52.154;4.498;2023-08-21T00:14:11;102942.53;;;18.62;100.00
72414;BME280;60995;52.154;4.498;2023-08-21T00:16:27;102939.78;;;18.62;100.00
72414;BME280;60995;52.154;4.498;2023-08-21T00:18:44;102936.03;;;18.63;100.00
72414;BME280;60995;52.154;4.498;2023-08-21T00:21:01;102928.09;;;18.70;100.00
72414;BME280;60995;52.154;4.498;2023-08-21T00:23:18;102930.25;;;18.66;100.00
72414;BME280;60995;52.154;4.498;2023-08-21T00:25:34;102926.94;;;18.73;100.00
72414;BME280;60995;52.154;4.498;2023-08-21T00:27:50;102936.34;;;18.70;100.00
72414;BME280;60995;52.154;4.498;2023-08-21T00:30:07;102942.69;;;18.61;100.00
72414;BME280;60995;52.154;4.498;2023-08-21T00:32:24;102946.72;;;18.57;100.00
72414;BME280;60995;52.154;4.498;2023-08-21T00:34:40;102937.59;;;18.56;100.00
72414;BME280;60995;52.154;4.498;2023-08-21T00:36:56;102945.38;;;18.51;100.00
72414;BME280;60995;52.154;4.498;2023-08-21T00:39:13;102939.78;;;18.52;100.00
72414;BME280;60995;52.154;4.498;2023-08-21T00:41:29;102938.41;;;18.47;100.00
72414;BME280;60995;52.154;4.498;2023-08-21T00:43:45;102936.88;;;18.54;100.00
72414;BME280;60995;52.154;4.498;2023-08-21T00:46:01;102933.94;;;18.46;100.00
72414;BME280;60995;52.154;4.498;2023-08-21T00:48:19;102924.97;;;18.44;100.00
72414;BME280;60995;52.154;4.498;2023-08-21T00:50:36;102921.22;;;18.45;100.00
72414;BME280;60995;52.154;4.498;2023-08-21T00:52:53;102917.59;;;18.44;100.00
72414;BME280;60995;52.154;4.498;2023-08-21T00:55:09;102923.50;;;18.40;100.00
72414;BME280;60995;52.154;4.498;2023-08-21T00:57:26;102927.13;;;18.40;100.00
72414;BME280;60995;52.154;4.498;2023-08-21T00:59:42;102925.22;;;18.41;100.00
72414;BME280;60995;52.154;4.498;2023-08-21T01:01:59;102923.69;;;18.48;100.00
72414;BME280;60995;52.154;4.498;2023-08-21T01:04:15;102927.16;;;18.50;100.00
72414;BME280;60995;52.154;4.498;2023-08-21T01:06:31;102926.72;;;18.45;100.00
72414;BME280;60995;52.154;4.498;2023-08-21T01:09:01;102921.47;;;18.42;100.00
72414;BME280;60995;52.154;4.498;2023-08-21T01:11:40;102927.56;;;18.45;100.00
72414;BME280;60995;52.154;4.498;2023-08-21T01:14:20;102925.28;;;18.50;100.00
72414;BME280;60995;52.154;4.498;2023-08-21T01:16:53;102929.13;;;18.38;100.00
72414;BME280;60995;52.154;4.498;2023-08-21T01:19:26;102926.25;;;18.40;100.00
72414;BME280;60995;52.154;4.498;2023-08-21T01:21:49;102922.06;;;18.35;100.00
72414;BME280;60995;52.154;4.498;2023-08-21T01:24:05;102925.06;;;18.32;100.00
72414;BME280;60995;52.154;4.498;2023-08-21T01:26:22;102928.25;;;18.38;100.00
72414;BME280;60995;52.154;4.498;2023-08-21T01:28:38;102932.75;;;18.39;100.00
72414;BME280;60995;52.154;4.498;2023-08-21T01:31:24;102934.19;;;18.33;100.00
72414;BME280;60995;52.154;4.498;2023-08-21T01:33:53;102926.06;;;18.31;100.00
72414;BME280;60995;52.154;4.498;2023-08-21T01:36:14;102929.25;;;18.37;100.00
72414;BME280;60995;52.154;4.498;2023-08-21T01:38:34;102933.22;;;18.44;100.00
72414;BME280;60995;52.154;4.498;2023-08-21T01:40:51;102926.97;;;18.42;100.00
72414;BME280;60995;52.154;4.498;2023-08-21T01:43:07;102932.78;;;18.48;100.00
72414;BME280;60995;52.154;4.498;2023-08-21T01:45:23;102933.94;;;18.46;100.00
72414;BME280;60995;52.154;4.498;2023-08-21T01:47:40;102937.25;;;18.40;100.00
72414;BME280;60995;52.154;4.498;2023-08-21T01:49:56;102931.31;;;18.34;100.00
72414;BME280;60995;52.154;4.498;2023-08-21T01:52:12;102932.00;;;18.37;100.00
72414;BME280;60995;52.154;4.498;2023-08-21T01:54:29;102938.41;;;18.37;100.00
72414;BME280;60995;52.154;4.498;2023-08-21T01:56:45;102935.91;;;18.34;100.00
72414;BME280;60995;52.154;4.498;2023-08-21T01:59:03;102932.69;;;18.29;100.00
72414;BME280;60995;52.154;4.498;2023-08-21T02:01:20;102935.06;;;18.33;100.00
72414;BME280;60995;52.154;4.498;2023-08-21T02:03:36;102934.31;;;18.31;100.00
72414;BME280;60995;52.154;4.498;2023-08-21T02:05:55;102940.09;;;18.28;100.00
72414;BME280;60995;52.154;4.498;2023-08-21T02:08:14;102929.94;;;18.29;100.00
72414;BME280;60995;52.154;4.498;2023-08-21T02:10:30;102924.00;;;18.24;100.00
72414;BME280;60995;52.154;4.498;2023-08-21T02:12:48;102918.66;;;18.22;100.00
72414;BME280;60995;52.154;4.498;2023-08-21T02:15:05;102908.41;;;18.24;100.00
72414;BME280;60995;52.154;4.498;2023-08-21T02:17:22;102902.31;;;18.21;100.00
72414;BME280;60995;52.154;4.498;2023-08-21T02:19:41;102907.19;;;18.17;100.00
72414;BME280;60995;52.154;4.498;2023-08-21T02:21:58;102896.78;;;18.11;100.00
72414;BME280;60995;52.154;4.498;2023-08-21T02:24:14;102895.03;;;18.10;100.00
72414;BME280;60995;52.154;4.498;2023-08-21T02:26:30;102895.88;;;18.10;100.00
72414;BME280;60995;52.154;4.498;2023-08-21T02:28:46;102893.13;;;18.10;100.00
72414;BME280;60995;52.154;4.498;2023-08-21T02:31:03;102895.03;;;18.10;100.00
72414;BME280;60995;52.154;4.498;2023-08-21T02:33:19;102898.78;;;18.09;100.00
72414;BME280;60995;52.154;4.498;2023-08-21T02:35:35;102904.41;;;18.07;100.00
72414;BME280;60995;52.154;4.498;2023-08-21T02:37:52;102902.81;;;18.05;100.00
72414;BME280;60995;52.154;4.498;2023-08-21T02:40:08;102911.19;;;18.03;100.00
72414;BME280;60995;52.154;4.498;2023-08-21T02:42:24;102910.06;;;18.06;100.00
72414;BME280;60995;52.154;4.498;2023-08-21T02:44:41;102912.81;;;18.06;100.00
72414;BME280;60995;52.154;4.498;2023-08-21T02:46:57;102917.88;;;18.10;100.00
72414;BME280;60995;52.154;4.498;2023-08-21T02:49:13;102915.88;;;18.12;100.00
72414;BME280;60995;52.154;4.498;2023-08-21T02:51:29;102918.75;;;18.11;100.00
72414;BME280;60995;52.154;4.498;2023-08-21T02:53:46;102916.25;;;18.08;100.00
72414;BME280;60995;52.154;4.498;2023-08-21T02:56:02;102909.78;;;18.09;100.00
72414;BME280;60995;52.154;4.498;2023-08-21T02:58:18;102913.06;;;18.02;100.00
72414;BME280;60995;52.154;4.498;2023-08-21T03:00:35;102907.38;;;17.94;100.00
72414;BME280;60995;52.154;4.498;2023-08-21T03:02:51;102895.25;;;17.97;100.00
72414;BME280;60995;52.154;4.498;2023-08-21T03:05:07;102891.25;;;17.90;100.00
72414;BME280;60995;52.154;4.498;2023-08-21T03:07:24;102887.38;;;17.92;100.00
72414;BME280;60995;52.154;4.498;2023-08-21T03:09:41;102885.78;;;17.90;100.00
72414;BME280;60995;52.154;4.498;2023-08-21T03:11:57;102889.66;;;17.87;100.00
72414;BME280;60995;52.154;4.498;2023-08-21T03:14:13;102890.53;;;17.88;100.00
72414;BME280;60995;52.154;4.498;2023-08-21T03:16:30;102887.66;;;17.89;100.00
72414;BME280;60995;52.154;4.498;2023-08-21T03:18:58;102900.59;;;17.98;100.00
72414;BME280;60995;52.154;4.498;2023-08-21T03:21:16;102892.00;;;17.92;100.00
72414;BME280;60995;52.154;4.498;2023-08-21T03:23:32;102896.28;;;17.84;100.00
72414;BME280;60995;52.154;4.498;2023-08-21T03:25:52;102899.47;;;17.80;100.00
72414;BME280;60995;52.154;4.498;2023-08-21T03:28:08;102899.72;;;17.77;100.00
72414;BME280;60995;52.154;4.498;2023-08-21T03:30:24;102898.72;;;17.78;100.00
72414;BME280;60995;52.154;4.498;2023-08-21T03:32:41;102894.50;;;17.74;100.00
72414;BME280;60995;52.154;4.498;2023-08-21T03:34:57;102881.53;;;17.76;100.00
72414;BME280;60995;52.154;4.498;2023-08-21T03:37:13;102883.84;;;17.80;100.00
72414;BME280;60995;52.154;4.498;2023-08-21T03:39:30;102890.47;;;17.78;100.00
72414;BME280;60995;52.154;4.498;2023-08-21T03:41:46;102883.97;;;17.79;100.00
72414;BME280;60995;52.154;4.498;2023-08-21T03:44:02;102882.97;;;17.80;100.00
72414;BME280;60995;52.154;4.498;2023-08-21T03:46:19;102887.00;;;17.76;100.00
72414;BME280;60995;52.154;4.498;2023-08-21T03:48:35;102889.88;;;17.74;100.00
72414;BME280;60995;52.154;4.498;2023-08-21T03:50:52;102876.13;;;17.74;100.00
72414;BME280;60995;52.154;4.498;2023-08-21T03:53:08;102870.53;;;17.76;100.00
72414;BME280;60995;52.154;4.498;2023-08-21T03:55:24;102874.28;;;17.75;100.00
72414;BME280;60995;52.154;4.498;2023-08-21T03:57:40;102872.72;;;17.82;100.00
72414;BME280;60995;52.154;4.498;2023-08-21T03:59:56;102877.03;;;17.96;100.00
72414;BME280;60995;52.154;4.498;2023-08-21T04:02:13;102885.91;;;17.88;100.00
72414;BME280;60995;52.154;4.498;2023-08-21T04:04:29;102880.94;;;17.82;100.00
72414;BME280;60995;52.154;4.498;2023-08-21T04:06:45;102875.47;;;17.82;100.00
72414;BME280;60995;52.154;4.498;2023-08-21T04:09:02;102882.69;;;17.83;100.00
72414;BME280;60995;52.154;4.498;2023-08-21T04:11:21;102881.25;;;17.79;100.00
72414;BME280;60995;52.154;4.498;2023-08-21T04:13:38;102888.88;;;17.75;100.00
72414;BME280;60995;52.154;4.498;2023-08-21T04:15:54;102892.69;;;17.84;100.00
72414;BME280;60995;52.154;4.498;2023-08-21T04:18:12;102891.94;;;17.82;100.00
72414;BME280;60995;52.154;4.498;2023-08-21T04:20:28;102890.22;;;17.81;100.00
72414;BME280;60995;52.154;4.498;2023-08-21T04:22:45;102879.78;;;17.75;100.00
72414;BME280;60995;52.154;4.498;2023-08-21T04:25:01;102878.31;;;17.71;100.00
72414;BME280;60995;52.154;4.498;2023-08-21T04:27:17;102880.31;;;17.68;100.00
72414;BME280;60995;52.154;4.498;2023-08-21T04:29:35;102876.56;;;17.69;100.00
72414;BME280;60995;52.154;4.498;2023-08-21T04:31:51;102870.53;;;17.76;100.00
72414;BME280;60995;52.154;4.498;2023-08-21T04:34:08;102874.00;;;17.78;100.00
72414;BME280;60995;52.154;4.498;2023-08-21T04:36:24;102869.97;;;17.82;100.00
72414;BME280;60995;52.154;4.498;2023-08-21T04:38:40;102873.00;;;17.79;100.00
72414;BME280;60995;52.154;4.498;2023-08-21T04:41:05;102873.75;;;17.81;100.00
72414;BME280;60995;52.154;4.498;2023-08-21T04:43:23;102882.97;;;17.80;100.00
72414;BME280;60995;52.154;4.498;2023-08-21T04:45:55;102876.34;;;17.82;100.00
72414;BME280;60995;52.154;4.498;2023-08-21T04:48:11;102865.09;;;17.85;100.00
72414;BME280;60995;52.154;4.498;2023-08-21T04:50:27;102862.34;;;17.85;100.00
72414;BME280;60995;52.154;4.498;2023-08-21T04:52:43;102860.72;;;17.83;100.00
72414;BME280;60995;52.154;4.498;2023-08-21T04:55:00;102860.72;;;17.83;100.00
72414;BME280;60995;52.154;4.498;2023-08-21T04:57:16;102873.19;;;17.87;100.00
72414;BME280;60995;52.154;4.498;2023-08-21T04:59:35;102866.78;;;17.98;100.00
72414;BME280;60995;52.154;4.498;2023-08-21T05:01:52;102879.22;;;18.02;100.00
72414;BME280;60995;52.154;4.498;2023-08-21T05:04:08;102882.97;;;18.01;100.00
72414;BME280;60995;52.154;4.498;2023-08-21T05:06:24;102882.59;;;18.06;100.00
72414;BME280;60995;52.154;4.498;2023-08-21T05:08:40;102885.78;;;18.11;100.00
72414;BME280;60995;52.154;4.498;2023-08-21T05:10:58;102893.78;;;18.24;100.00
72414;BME280;60995;52.154;4.498;2023-08-21T05:13:14;102891.81;;;18.35;100.00
72414;BME280;60995;52.154;4.498;2023-08-21T05:15:33;102907.88;;;18.40;100.00
72414;BME280;60995;52.154;4.498;2023-08-21T05:17:49;102918.31;;;18.46;100.00
72414;BME280;60995;52.154;4.498;2023-08-21T05:20:06;102930.22;;;18.57;100.00
72414;BME280;60995;52.154;4.498;2023-08-21T05:22:23;102933.13;;;18.65;100.00
72414;BME280;60995;52.154;4.498;2023-08-21T05:24:39;102934.91;;;18.76;100.00
72414;BME280;60995;52.154;4.498;2023-08-21T05:26:55;102954.34;;;18.84;100.00
72414;BME280;60995;52.154;4.498;2023-08-21T05:29:11;102948.03;;;18.93;100.00
72414;BME280;60995;52.154;4.498;2023-08-21T05:31:28;102960.19;;;19.00;100.00
72414;BME280;60995;52.154;4.498;2023-08-21T05:33:44;102959.75;;;19.15;100.00
72414;BME280;60995;52.154;4.498;2023-08-21T05:36:01;102965.44;;;19.23;100.00
72414;BME280;60995;52.154;4.498;2023-08-21T05:38:17;102976.44;;;19.33;100.00
72414;BME280;60995;52.154;4.498;2023-08-21T05:40:33;102980.09;;;19.43;100.00
72414;BME280;60995;52.154;4.498;2023-08-21T05:42:49;102989.50;;;19.60;100.00
72414;BME280;60995;52.154;4.498;2023-08-21T05:45:06;102996.03;;;19.69;100.00
72414;BME280;60995;52.154;4.498;2023-08-21T05:47:22;102990.50;;;19.79;100.00
72414;BME280;60995;52.154;4.498;2023-08-21T05:49:40;102999.66;;;19.89;100.00
72414;BME280;60995;52.154;4.498;2023-08-21T05:51:56;102992.72;;;19.85;100.00
72414;BME280;60995;52.154;4.498;2023-08-21T05:54:14;102995.75;;;20.02;100.00
72414;BME280;60995;52.154;4.498;2023-08-21T05:56:30;102998.78;;;19.98;100.00
72414;BME280;60995;52.154;4.498;2023-08-21T05:58:47;102998.03;;;20.16;100.00
72414;BME280;60995;52.154;4.498;2023-08-21T06:01:03;103004.78;;;20.41;100.00
72414;BME280;60995;52.154;4.498;2023-08-21T06:03:19;103005.72;;;20.97;100.00
72414;BME280;60995;52.154;4.498;2023-08-21T06:05:35;103003.44;;;21.39;100.00
72414;BME280;60995;52.154;4.498;2023-08-21T06:07:52;102991.53;;;22.71;100.00
72414;BME280;60995;52.154;4.498;2023-08-21T06:10:09;102905.56;;;24.77;100.00
72414;BME280;60995;52.154;4.498;2023-08-21T06:12:30;102735.22;;;28.33;100.00
72414;BME280;60995;52.154;4.498;2023-08-21T06:14:46;102619.84;;;30.49;100.00
72414;BME280;60995;52.154;4.498;2023-08-21T06:17:04;102563.09;;;32.86;100.00
72414;BME280;60995;52.154;4.498;2023-08-21T06:19:21;102532.63;;;33.93;100.00
72414;BME280;60995;52.154;4.498;2023-08-21T06:21:37;102470.66;;;34.10;100.00
72414;BME280;60995;52.154;4.498;2023-08-21T06:23:53;102403.06;;;35.48;96.88
72414;BME280;60995;52.154;4.498;2023-08-21T06:26:09;102363.78;;;36.27;88.53
72414;BME280;60995;52.154;4.498;2023-08-21T06:28:26;102283.69;;;37.47;80.57
72414;BME280;60995;52.154;4.498;2023-08-21T06:30:42;102284.22;;;37.80;77.30
72414;BME280;60995;52.154;4.498;2023-08-21T06:32:58;102283.56;;;38.09;74.79
72414;BME280;60995;52.154;4.498;2023-08-21T06:35:15;102281.97;;;38.87;73.97
72414;BME280;60995;52.154;4.498;2023-08-21T06:37:31;102276.69;;;39.93;70.87
72414;BME280;60995;52.154;4.498;2023-08-21T06:39:48;102281.88;;;40.53;68.89
72414;BME280;60995;52.154;4.498;2023-08-21T06:42:05;102278.16;;;40.72;67.22
72414;BME280;60995;52.154;4.498;2023-08-21T06:44:21;102279.81;;;40.15;69.06
72414;BME280;60995;52.154;4.498;2023-08-21T06:46:37;102277.13;;;39.51;70.31
72414;BME280;60995;52.154;4.498;2023-08-21T06:48:54;102281.69;;;40.25;69.40
72414;BME280;60995;52.154;4.498;2023-08-21T06:51:11;102272.94;;;40.98;67.40
72414;BME280;60995;52.154;4.498;2023-08-21T06:53:27;102277.06;;;40.10;68.78
72414;BME280;60995;52.154;4.498;2023-08-21T06:55:45;102280.53;;;39.24;71.91
72414;BME280;60995;52.154;4.498;2023-08-21T06:58:02;102276.78;;;39.58;70.91
72414;BME280;60995;52.154;4.498;2023-08-21T07:00:18;102288.84;;;39.45;70.14
72414;BME280;60995;52.154;4.498;2023-08-21T07:02:35;102284.16;;;39.59;71.74
72414;BME280;60995;52.154;4.498;2023-08-21T07:04:51;102288.44;;;39.57;71.00
72414;BME280;60995;52.154;4.498;2023-08-21T07:07:07;102292.13;;;37.72;76.09
72414;BME280;60995;52.154;4.498;2023-08-21T07:09:24;102281.75;;;38.78;73.55
72414;BME280;60995;52.154;4.498;2023-08-21T07:11:40;102279.47;;;39.98;71.08
72414;BME280;60995;52.154;4.498;2023-08-21T07:13:56;102285.84;;;38.01;76.28
72414;BME280;60995;52.154;4.498;2023-08-21T07:16:13;102291.44;;;38.67;74.26
72414;BME280;60995;52.154;4.498;2023-08-21T07:18:34;102287.56;;;39.61;72.10
72414;BME280;60995;52.154;4.498;2023-08-21T07:20:54;102293.13;;;39.13;73.30
72414;BME280;60995;52.154;4.498;2023-08-21T07:23:10;102283.75;;;39.95;70.83
72414;BME280;60995;52.154;4.498;2023-08-21T07:25:26;102300.31;;;39.00;73.91
72414;BME280;60995;52.154;4.498;2023-08-21T07:27:44;102288.88;;;39.10;73.30
72414;BME280;60995;52.154;4.498;2023-08-21T07:30:00;102291.94;;;39.48;72.97
72414;BME280;60995;52.154;4.498;2023-08-21T07:32:16;102296.25;;;38.21;74.25
72414;BME280;60995;52.154;4.498;2023-08-21T07:34:33;102302.13;;;38.35;76.12
72414;BME280;60995;52.154;4.498;2023-08-21T07:36:49;102302.88;;;37.91;75.98
72414;BME280;60995;52.154;4.498;2023-08-21T07:39:05;102310.19;;;38.08;76.15
72414;BME280;60995;52.154;4.498;2023-08-21T07:41:21;102303.44;;;38.53;75.97
72414;BME280;60995;52.154;4.498;2023-08-21T07:43:40;102296.84;;;39.96;71.83
72414;BME280;60995;52.154;4.498;2023-08-21T07:45:58;102303.53;;;38.88;73.27
72414;BME280;60995;52.154;4.498;2023-08-21T07:48:17;102293.50;;;40.13;71.52
72414;BME280;60995;52.154;4.498;2023-08-21T07:50:33;102306.31;;;39.86;71.14
72414;BME280;60995;52.154;4.498;2023-08-21T07:52:50;102313.09;;;40.15;70.51
72414;BME280;60995;52.154;4.498;2023-08-21T07:55:06;102307.88;;;40.22;71.64
72414;BME280;60995;52.154;4.498;2023-08-21T07:57:23;102309.41;;;40.58;69.87
72414;BME280;60995;52.154;4.498;2023-08-21T07:59:40;102299.34;;;41.50;67.23
72414;BME280;60995;52.154;4.498;2023-08-21T08:01:56;102302.75;;;41.33;68.23
72414;BME280;60995;52.154;4.498;2023-08-21T08:04:12;102302.84;;;40.95;68.61
72414;BME280;60995;52.154;4.498;2023-08-21T08:06:29;102301.56;;;41.67;66.57
72414;BME280;60995;52.154;4.498;2023-08-21T08:08:45;102312.41;;;40.23;70.16
72414;BME280;60995;52.154;4.498;2023-08-21T08:11:03;102306.28;;;40.35;67.93
72414;BME280;60995;52.154;4.498;2023-08-21T08:13:20;102308.16;;;40.45;68.46
72414;BME280;60995;52.154;4.498;2023-08-21T08:15:36;102306.63;;;41.57;66.12
72414;BME280;60995;52.154;4.498;2023-08-21T08:17:54;102311.06;;;41.77;65.75
72414;BME280;60995;52.154;4.498;2023-08-21T08:20:13;102311.28;;;41.66;65.97
72414;BME280;60995;52.154;4.498;2023-08-21T08:22:29;102311.28;;;42.22;64.53
72414;BME280;60995;52.154;4.498;2023-08-21T08:24:46;102319.13;;;39.25;71.92
72414;BME280;60995;52.154;4.498;2023-08-21T08:27:02;102310.75;;;39.44;71.94
72414;BME280;60995;52.154;4.498;2023-08-21T08:29:18;102311.38;;;39.01;70.27
72414;BME280;60995;52.154;4.498;2023-08-21T08:31:35;102311.47;;;40.52;67.72
72414;BME280;60995;52.154;4.498;2023-08-21T08:33:51;102307.38;;;40.39;67.70
72414;BME280;60995;52.154;4.498;2023-08-21T08:36:08;102301.91;;;40.43;66.97
72414;BME280;60995;52.154;4.498;2023-08-21T08:38:26;102307.72;;;40.32;67.77
72414;BME280;60995;52.154;4.498;2023-08-21T08:40:46;102292.38;;;41.43;65.07
72414;BME280;60995;52.154;4.498;2023-08-21T08:43:03;102294.44;;;40.47;65.04
72414;BME280;60995;52.154;4.498;2023-08-21T08:45:28;102298.78;;;38.23;71.39
72414;BME280;60995;52.154;4.498;2023-08-21T08:47:48;102306.75;;;39.75;69.08
72414;BME280;60995;52.154;4.498;2023-08-21T08:50:05;102297.81;;;40.11;67.48
72414;BME280;60995;52.154;4.498;2023-08-21T08:52:26;102303.44;;;40.92;64.49
72414;BME280;60995;52.154;4.498;2023-08-21T08:54:43;102305.03;;;40.65;64.03
72414;BME280;60995;52.154;4.498;2023-08-21T08:57:00;102310.94;;;38.23;69.93
72414;BME280;60995;52.154;4.498;2023-08-21T08:59:17;102320.50;;;37.52;71.56
72414;BME280;60995;52.154;4.498;2023-08-21T09:01:33;102317.09;;;37.03;74.61
72414;BME280;60995;52.154;4.498;2023-08-21T09:03:50;102319.53;;;38.74;71.04
72414;BME280;60995;52.154;4.498;2023-08-21T09:06:06;102324.97;;;38.60;69.81
72414;BME280;60995;52.154;4.498;2023-08-21T09:08:23;102313.59;;;38.65;68.32
72414;BME280;60995;52.154;4.498;2023-08-21T09:10:40;102322.59;;;38.17;69.63
72414;BME280;60995;52.154;4.498;2023-08-21T09:12:58;102309.44;;;38.92;69.28
72414;BME280;60995;52.154;4.498;2023-08-21T09:15:17;102303.16;;;40.37;64.48
72414;BME280;60995;52.154;4.498;2023-08-21T09:17:34;102304.91;;;41.09;62.08
72414;BME280;60995;52.154;4.498;2023-08-21T09:19:50;102313.47;;;40.08;64.58
72414;BME280;60995;52.154;4.498;2023-08-21T09:22:15;102315.00;;;40.82;63.73
72414;BME280;60995;52.154;4.498;2023-08-21T09:24:33;102311.22;;;40.48;62.79
72414;BME280;60995;52.154;4.498;2023-08-21T09:26:50;102302.91;;;41.09;61.02
72414;BME280;60995;52.154;4.498;2023-08-21T09:29:07;102303.38;;;41.16;60.91
72414;BME280;60995;52.154;4.498;2023-08-21T09:31:30;102305.19;;;40.55;62.50
72414;BME280;60995;52.154;4.498;2023-08-21T09:34:01;102302.97;;;40.47;61.63
72414;BME280;60995;52.154;4.498;2023-08-21T09:36:21;102303.16;;;39.34;62.51
72414;BME280;60995;52.154;4.498;2023-08-21T09:38:39;102300.63;;;39.86;63.48
72414;BME280;60995;52.154;4.498;2023-08-21T09:40:56;102306.22;;;38.64;65.84
72414;BME280;60995;52.154;4.498;2023-08-21T09:43:12;102303.94;;;39.05;66.34
72414;BME280;60995;52.154;4.498;2023-08-21T09:45:29;102307.19;;;38.49;66.75
72414;BME280;60995;52.154;4.498;2023-08-21T09:47:46;102306.13;;;39.19;63.96
72414;BME280;60995;52.154;4.498;2023-08-21T09:50:03;102296.78;;;40.01;63.69
72414;BME280;60995;52.154;4.498;2023-08-21T09:52:21;102301.00;;;39.80;63.14
72414;BME280;60995;52.154;4.498;2023-08-21T09:54:42;102288.81;;;39.79;62.70
72414;BME280;60995;52.154;4.498;2023-08-21T09:57:01;102303.34;;;39.73;62.02
72414;BME280;60995;52.154;4.498;2023-08-21T09:59:19;102310.53;;;37.90;65.22
72414;BME280;60995;52.154;4.498;2023-08-21T10:01:38;102301.72;;;39.66;62.41
72414;BME280;60995;52.154;4.498;2023-08-21T10:03:57;102305.03;;;40.65;59.79
72414;BME280;60995;52.154;4.498;2023-08-21T10:06:19;102299.75;;;39.91;60.06
72414;BME280;60995;52.154;4.498;2023-08-21T10:08:38;102305.69;;;40.38;59.59
72414;BME280;60995;52.154;4.498;2023-08-21T10:10:59;102309.00;;;41.03;57.49
72414;BME280;60995;52.154;4.498;2023-08-21T10:13:16;102307.09;;;40.16;58.90
72414;BME280;60995;52.154;4.498;2023-08-21T10:15:34;102310.56;;;39.30;60.68
72414;BME280;60995;52.154;4.498;2023-08-21T10:17:53;102305.63;;;41.00;57.53
72414;BME280;60995;52.154;4.498;2023-08-21T10:20:10;102313.16;;;38.92;60.48
72414;BME280;60995;52.154;4.498;2023-08-21T10:22:44;102308.88;;;38.45;62.70
72414;BME280;60995;52.154;4.498;2023-08-21T10:25:01;102314.84;;;37.16;66.26
72414;BME280;60995;52.154;4.498;2023-08-21T10:27:29;102322.34;;;36.48;69.23
72414;BME280;60995;52.154;4.498;2023-08-21T10:29:56;102319.38;;;37.58;67.28
72414;BME280;60995;52.154;4.498;2023-08-21T10:32:22;102313.69;;;37.22;67.18
72414;BME280;60995;52.154;4.498;2023-08-21T10:34:38;102304.06;;;38.90;62.75
72414;BME280;60995;52.154;4.498;2023-08-21T10:37:10;102307.38;;;37.97;65.19
72414;BME280;60995;52.154;4.498;2023-08-21T10:39:29;102307.56;;;38.32;63.09
72414;BME280;60995;52.154;4.498;2023-08-21T10:41:57;102316.19;;;36.72;67.00
72414;BME280;60995;52.154;4.498;2023-08-21T10:47:13;102318.66;;;35.47;70.84
72414;BME280;60995;52.154;4.498;2023-08-21T10:49:30;102315.47;;;35.75;71.07
72414;BME280;60995;52.154;4.498;2023-08-21T10:51:49;102314.31;;;36.19;70.78
72414;BME280;60995;52.154;4.498;2023-08-21T10:54:13;102303.53;;;37.05;66.80
72414;BME280;60995;52.154;4.498;2023-08-21T10:56:31;102297.50;;;36.71;67.33
72414;BME280;60995;52.154;4.498;2023-08-21T10:58:47;102301.25;;;37.59;65.58
72414;BME280;60995;52.154;4.498;2023-08-21T11:01:07;102307.50;;;37.25;65.98
72414;BME280;60995;52.154;4.498;2023-08-21T11:03:23;102308.00;;;37.73;65.51
72414;BME280;60995;52.154;4.498;2023-08-21T11:05:40;102304.09;;;37.13;66.18
72414;BME280;60995;52.154;4.498;2023-08-21T11:07:57;102319.94;;;37.50;65.28
72414;BME280;60995;52.154;4.498;2023-08-21T11:10:15;102314.56;;;37.22;65.02
72414;BME280;60995;52.154;4.498;2023-08-21T11:12:33;102315.66;;;36.06;68.95
72414;BME280;60995;52.154;4.498;2023-08-21T11:14:49;102323.09;;;36.28;70.45
72414;BME280;60995;52.154;4.498;2023-08-21T11:17:07;102315.34;;;36.82;69.19
72414;BME280;60995;52.154;4.498;2023-08-21T11:19:24;102321.63;;;36.99;68.50
72414;BME280;60995;52.154;4.498;2023-08-21T11:21:41;102307.31;;;36.37;69.39
72414;BME280;60995;52.154;4.498;2023-08-21T11:23:57;102307.69;;;34.63;74.77
72414;BME280;60995;52.154;4.498;2023-08-21T11:26:13;102312.19;;;35.51;73.07
72414;BME280;60995;52.154;4.498;2023-08-21T11:28:30;102316.59;;;34.55;75.31
72414;BME280;60995;52.154;4.498;2023-08-21T11:30:47;102312.16;;;34.59;76.82
72414;BME280;60995;52.154;4.498;2023-08-21T11:35:27;102316.47;;;34.39;77.32
72414;BME280;60995;52.154;4.498;2023-08-21T11:37:44;102318.66;;;34.37;77.50
72414;BME280;60995;52.154;4.498;2023-08-21T11:40:07;102321.53;;;33.98;77.76
72414;BME280;60995;52.154;4.498;2023-08-21T11:42:32;102315.94;;;33.81;77.19
72414;BME280;60995;52.154;4.498;2023-08-21T11:44:51;102322.91;;;33.10;80.09
72414;BME280;60995;52.154;4.498;2023-08-21T11:47:08;102324.78;;;33.56;79.18
72414;BME280;60995;52.154;4.498;2023-08-21T11:49:24;102335.53;;;33.25;79.60
72414;BME280;60995;52.154;4.498;2023-08-21T11:51:41;102321.22;;;33.60;79.10
72414;BME280;60995;52.154;4.498;2023-08-21T11:53:57;102326.63;;;32.99;80.30
72414;BME280;60995;52.154;4.498;2023-08-21T11:56:16;102334.59;;;32.73;81.36
72414;BME280;60995;52.154;4.498;2023-08-21T11:58:37;102324.75;;;33.05;80.71
72414;BME280;60995;52.154;4.498;2023-08-21T12:01:02;102319.50;;;33.25;79.49